CYYJ/YYJ METAR and TAF weather

Enter ICAO airport designator
Station Type Date Time Source
CYYJ METAR 2021/09/24 02:00 UTC NOAA

CYYJ 240200Z 07003KT 30SM FEW250 15/12 A3026 RMK CI1 CI TR SLP247


Station Type Date Time Source
CYYJ Decoded METAR 2021/09/24 02:00 UTC NOAA

Victoria Int. Airport, B. C., Canada (CYYJ) 48-39N 123-26W 19M
Sep 23, 2021 - 10:00 PM EDT / 2021.09.24 0200 UTC
Wind: from the ENE (070 degrees) at 3 MPH (3 KT):0
Visibility: 30 mile(s):0
Sky conditions: mostly clear
Temperature: 59 F (15 C)
Dew Point: 53 F (12 C)
Relative Humidity: 82%
Pressure (altimeter): 30.26 in. Hg (1024 hPa)
ob: CYYJ 240200Z 07003KT 30SM FEW250 15/12 A3026 RMK CI1 CI TR SLP247
cycle: 2

Station Type Date Time Source
CYYJ TAF 2021/09/23 18:39 UTC NOAA

TAF TAF CYYJ 231738Z 2318/2418 13005KT P6SM SCT015 SCT040 BKN120
TEMPO 2318/2320 BKN015
FM232000 09007KT P6SM SCT150
FM240300 VRB03KT P6SM FEW200
BECMG 2407/2409 28005KT
RMK NXT FCST BY 240000Z

Example: see airport list